Airfield :
LOGIN :

Register | Disclaimer

   EN    FR    IT 

 










Legend :    VFR   Marginal VFR   IFR   Intensive IFR   Very Intensive IFR
Visi :
Ceiling :
>= 8 km
>= 3000ft
5 to 8 km
1000 to 3000 ft
1500m to 5 km
500 to 1000 ft
800 to 1500m
200 to 500 ft
< 800m
< 200 ft
Symbols :   Thunderstorms  Fog  Heavy snow  Heavy precipitations  Wind > 20 kt
SIGMETs :     Misc.  Thunderstorms  Icing  Turbulence  Mountain Waves  Volcanic Ashes






- Airport Elevation : 33 ft
- IATA code : MHZ


EGUN - RAF Mildenhall

CURRENT METAR :
  • 080256Z 20016KT 9999 FEW120 05/05 A2902 RMK AO2A SLPNO T00540048 $

EXPIRED METARs :
  • 080156Z 21014KT 9999 SCT120 05/05 A2902 RMK AO2A PK WND 21026/26 SLP831 T00530049 $
  • 080056Z 20017G23KT 9999 CLR 05/05 A2900 RMK AO2A PK WND 20026/44 SLP824 T00540050 $
  • 072356Z 21016G22KT 9999 CLR 05/05 A2902 RMK AO2A SLP831 60000 T00510051 10058 20044 400670000 56011 $

TAF TAF EGUN
Valid from the 07 at 20:00 until the 09 at 02:00 UTC


072000Z 0720/0902 18015KT 9999 FEW040 SCT100 BKN200 WS018/23050KT 520209 QNH2901INS
TEMPO 0720/0721 18025G35KT 5000 SHRA BR BKN012 OVC022 640402 610609 510003
TEMPO 0721/0724 19015G20KT 520009 520903
BECMG 0800/0801 19020G25KT 9999 FEW040 FEW100 BKN200 520009 520903 QNH2900INS
BECMG 0809/0810 22015G30KT 9999 VCSH FEW015 BKN025 BKN080 600406 520006 QNH2907INS
TEMPO 0811/0816 23025G35KT 4000 +SHRA BR BKN015 OVC040 610309 520001 540107
BECMG 0817/0818 24015G20KT 9999 NSW FEW020 BKN040 620404 510005 QNH2909INS
BECMG 0820/0821 24012G18KT 9999 FEW012 BKN019 QNH2932INS
BECMG 0900/0901 24010G15KT 8000 -SHRA SCT008 OVC012 QNH2934INS TX07/0814Z TN04/0805Z



MET'MAP, your aeronautical weather chart ! - Copyright ORBIFLY December 2007 - Disclaimer

ORBIFLY MET'MAP TEAM :

Programming & Development : Alexandra Zaïnal
Concept & original design : Baudouin d'Aumeries
Assistance for programming : Marc-Olivier Méhu
Technical & hardware support : Manuel Goepfert

Contact : metmap@orbifly.com




SOURCES & CREDITS :

   NOAA